Time;durP1;ratioP1;P1;durP2;ratioP2;P2;SDS_P1;SDS_P2;PMS_P1;PMS_P2;Temp;Humidity;BMP_temperature;BMP_pressure;BME280_temperature;BME280_humidity;BME280_pressure;Samples;Min_cycle;Max_cycle;Signal;HPM_P1;HPM_P2
2023/05/23 00:07:27;;;;;;;1999.90;999.90;;;;;;;15.44;100.00;97662.00;5054902;28;20060;-74
2023/05/23 00:09:52;;;;;;;1999.90;999.90;;;;;;;15.36;100.00;97652.63;5053915;28;20037;-75
2023/05/23 00:12:18;;;;;;;1999.90;999.90;;;;;;;15.37;100.00;97648.75;5052823;28;20021;-75
2023/05/23 00:14:44;;;;;;;1999.90;999.90;;;;;;;15.41;100.00;97655.19;5052844;28;20025;-74
2023/05/23 00:17:09;;;;;;;1999.90;999.90;;;;;;;15.44;100.00;97650.97;5051778;28;20068;-75
2023/05/23 00:19:35;;;;;;;1999.90;999.90;;;;;;;15.43;100.00;97652.09;5052630;28;20108;-75
2023/05/23 00:22:00;;;;;;;1999.90;999.90;;;;;;;15.40;100.00;97655.53;5052795;28;20440;-75
2023/05/23 00:24:26;;;;;;;1999.90;999.90;;;;;;;15.30;100.00;97650.38;5053028;28;20440;-75
2023/05/23 00:26:51;;;;;;;1999.90;999.90;;;;;;;15.22;100.00;97654.00;5053402;28;20029;-75
2023/05/23 00:29:16;;;;;;;1999.90;999.90;;;;;;;15.13;100.00;97642.25;5052490;28;20112;-74
2023/05/23 00:31:45;;;;;;;1999.90;999.90;;;;;;;15.05;100.00;97648.59;5052487;28;20087;-74
2023/05/23 00:34:12;;;;;;;1999.90;999.90;;;;;;;14.83;100.00;97635.88;5052612;28;20029;-75
2023/05/23 00:36:37;;;;;;;1999.90;999.90;;;;;;;14.78;100.00;97636.09;5052744;28;20112;-75
2023/05/23 00:39:03;;;;;;;1999.90;999.90;;;;;;;14.72;100.00;97638.19;5052275;28;20112;-76
2023/05/23 00:41:29;;;;;;;1999.90;999.90;;;;;;;14.84;100.00;97646.59;5052408;28;20036;-74
2023/05/23 00:43:57;;;;;;;1999.90;999.90;;;;;;;14.86;100.00;97649.00;5052358;28;20025;-74
2023/05/23 00:46:22;;;;;;;1999.90;999.90;;;;;;;14.79;100.00;97641.25;5052414;28;20057;-72
2023/05/23 00:48:48;;;;;;;1999.90;999.90;;;;;;;14.76;100.00;97633.66;5052119;28;20017;-74
2023/05/23 00:51:14;;;;;;;1999.90;999.90;;;;;;;14.66;100.00;97634.00;5052119;28;20028;-77
2023/05/23 00:53:39;;;;;;;1999.90;999.90;;;;;;;14.67;100.00;97640.31;5052076;28;20040;-76
2023/05/23 00:56:05;;;;;;;1999.90;999.90;;;;;;;14.65;100.00;97640.66;5052844;28;20036;-75
2023/05/23 00:58:30;;;;;;;1999.90;999.90;;;;;;;14.66;100.00;97636.75;5052398;28;20028;-75
2023/05/23 01:00:58;;;;;;;1999.90;999.90;;;;;;;14.65;100.00;97643.41;5052263;28;20023;-75
2023/05/23 01:03:27;;;;;;;1999.90;999.90;;;;;;;14.57;100.00;97632.41;5054791;28;20052;-77
2023/05/23 01:05:53;;;;;;;1999.90;999.90;;;;;;;14.53;100.00;97631.47;5047294;28;20050;-76
2023/05/23 01:08:18;;;;;;;1999.90;999.90;;;;;;;14.39;100.00;97617.91;5015505;28;20445;-76
2023/05/23 01:10:43;;;;;;;1999.90;999.90;;;;;;;14.63;100.00;97642.91;5032128;28;20022;-75
2023/05/23 01:13:10;;;;;;;1999.90;999.90;;;;;;;14.65;100.00;97643.41;5031780;28;20061;-75
2023/05/23 01:16:18;;;;;;;1999.90;999.90;;;;;;;14.60;100.00;97640.03;5031730;28;20559;-76
2023/05/23 01:19:19;;;;;;;1999.90;999.90;;;;;;;14.57;100.00;97643.41;5030173;28;20103;-74
2023/05/23 01:21:51;;;;;;;1999.90;999.90;;;;;;;14.63;100.00;97644.88;5031710;28;20385;-76
2023/05/23 01:24:39;;;;;;;1999.90;999.90;;;;;;;14.57;100.00;97647.00;5031748;28;20031;-76
2023/05/23 01:27:49;;;;;;;1999.90;999.90;;;;;;;14.47;100.00;97639.09;5031661;28;20080;-75
2023/05/23 01:30:20;;;;;;;1999.90;999.90;;;;;;;14.48;100.00;97632.44;5031497;28;20034;-75
2023/05/23 01:32:47;;;;;;;1999.90;999.90;;;;;;;14.35;100.00;97642.53;5031377;28;20029;-76
2023/05/23 01:35:19;;;;;;;1999.90;999.90;;;;;;;14.31;100.00;97640.72;5031342;28;20075;-76
2023/05/23 01:37:45;;;;;;;1999.90;999.90;;;;;;;14.16;100.00;97638.50;5031458;28;20029;-77
2023/05/23 01:40:10;;;;;;;1999.90;999.90;;;;;;;14.11;100.00;97641.41;5031276;28;20536;-81
2023/05/23 01:42:36;;;;;;;1999.90;999.90;;;;;;;14.04;100.00;97632.84;5031327;28;20025;-76
2023/05/23 01:45:02;;;;;;;1999.90;999.90;;;;;;;13.99;100.00;97630.25;5031293;28;20060;-73
2023/05/23 01:47:28;;;;;;;1999.90;999.90;;;;;;;14.05;100.00;97629.75;5031470;28;20450;-75
2023/05/23 01:49:55;;;;;;;1999.90;999.90;;;;;;;14.05;100.00;97628.97;5031116;28;20029;-75
2023/05/23 01:52:22;;;;;;;1999.90;999.90;;;;;;;13.92;100.00;97637.06;5031121;28;20029;-75
2023/05/23 01:54:48;;;;;;;1999.90;999.90;;;;;;;14.00;100.00;97637.38;5013266;28;20028;-77
2023/05/23 01:57:14;;;;;;;1999.90;999.90;;;;;;;13.90;100.00;97636.59;5031513;28;20039;-76
2023/05/23 01:59:40;;;;;;;1999.90;999.90;;;;;;;13.84;100.00;97648.88;5030847;28;20032;-74
2023/05/23 02:02:05;;;;;;;1999.90;999.90;;;;;;;13.76;100.00;97640.63;5030931;28;20025;-76
2023/05/23 02:04:31;;;;;;;1999.90;999.90;;;;;;;13.71;100.00;97641.59;5030985;28;20130;-76
2023/05/23 02:06:56;;;;;;;1999.90;999.90;;;;;;;13.67;100.00;97635.13;5030795;28;20095;-75
2023/05/23 02:09:21;;;;;;;1999.90;999.90;;;;;;;13.73;100.00;97631.09;5013184;28;20155;-74
2023/05/23 02:11:47;;;;;;;1999.90;999.90;;;;;;;13.91;100.00;97645.63;5024309;28;20026;-75
2023/05/23 02:14:12;;;;;;;1999.90;999.90;;;;;;;13.91;100.00;97635.44;5022909;28;20038;-75
2023/05/23 02:16:37;;;;;;;1999.90;999.90;;;;;;;13.90;100.00;97625.59;5027677;28;20028;-75
2023/05/23 02:19:03;;;;;;;1999.90;999.90;;;;;;;13.84;100.00;97626.88;5029957;28;20132;-76
2023/05/23 02:21:28;;;;;;;1999.90;999.90;;;;;;;13.88;100.00;97629.78;5030068;28;20087;-75
2023/05/23 02:23:53;;;;;;;1999.90;999.90;;;;;;;13.91;100.00;97629.13;5030173;28;20029;-78
2023/05/23 02:26:19;;;;;;;1999.90;999.90;;;;;;;13.96;100.00;97631.72;5030671;28;20492;-76
2023/05/23 02:28:44;;;;;;;1999.90;999.90;;;;;;;14.06;100.00;97633.34;5030267;28;20029;-75
2023/05/23 02:31:09;;;;;;;1999.90;999.90;;;;;;;13.96;100.00;97620.72;5016664;28;20022;-75
2023/05/23 02:33:35;;;;;;;1999.90;999.90;;;;;;;13.93;100.00;97633.19;5011967;28;20034;-77
2023/05/23 02:36:01;;;;;;;1999.90;999.90;;;;;;;13.90;100.00;97627.53;5011223;28;20036;-74
2023/05/23 02:38:26;;;;;;;1999.90;999.90;;;;;;;13.75;100.00;97623.31;5011001;28;20029;-75
2023/05/23 02:40:52;;;;;;;1999.90;999.90;;;;;;;13.66;100.00;97621.69;5016531;28;20038;-75
2023/05/23 02:43:18;;;;;;;1999.90;999.90;;;;;;;13.70;100.00;97625.41;5016925;28;20033;-76
2023/05/23 02:45:44;;;;;;;1999.90;999.90;;;;;;;13.63;100.00;97614.91;5017195;28;20821;-75
2023/05/23 02:48:10;;;;;;;1999.90;999.90;;;;;;;13.60;100.00;97601.00;5016893;28;20040;-75
2023/05/23 02:50:36;;;;;;;1999.90;999.90;;;;;;;13.67;100.00;97615.88;5017076;28;20113;-75
2023/05/23 02:53:01;;;;;;;1999.90;999.90;;;;;;;13.57;100.00;97596.97;5017022;28;20116;-75
2023/05/23 02:55:27;;;;;;;1999.90;999.90;;;;;;;13.51;100.00;97609.25;5016638;28;20540;-76
2023/05/23 02:57:53;;;;;;;1999.90;999.90;;;;;;;13.47;100.00;97613.75;4999902;28;20072;-76
2023/05/23 03:00:18;;;;;;;1999.90;999.90;;;;;;;13.36;100.00;97617.97;5016956;28;20378;-75
2023/05/23 03:02:43;;;;;;;1999.90;999.90;;;;;;;13.32;100.00;97620.53;5017273;28;20030;-75
2023/05/23 03:05:09;;;;;;;1999.90;999.90;;;;;;;13.27;100.00;97620.72;5020527;28;20133;-76
2023/05/23 03:07:35;;;;;;;1999.90;999.90;;;;;;;13.25;100.00;97622.94;5036826;28;20052;-74
2023/05/23 03:10:01;;;;;;;1999.90;999.90;;;;;;;13.25;100.00;97619.41;5036813;28;20029;-75
2023/05/23 03:12:28;;;;;;;1999.90;999.90;;;;;;;13.20;100.00;97625.03;5040268;28;20041;-76
2023/05/23 03:14:53;;;;;;;1999.90;999.90;;;;;;;13.19;100.00;97617.94;5039015;28;20025;-75
2023/05/23 03:17:18;;;;;;;1999.90;999.90;;;;;;;13.27;100.00;97619.91;5037012;28;20025;-74
2023/05/23 03:19:44;;;;;;;1999.90;999.90;;;;;;;13.26;100.00;97610.84;5036769;28;20048;-76
2023/05/23 03:22:09;;;;;;;1999.90;999.90;;;;;;;13.00;100.00;97562.47;5036615;28;20100;-77
2023/05/23 03:24:34;;;;;;;1999.90;999.90;;;;;;;13.34;100.00;97609.25;5036711;28;20140;-76
2023/05/23 03:27:00;;;;;;;1999.90;999.90;;;;;;;13.38;100.00;97615.69;5036899;28;20108;-75
2023/05/23 03:29:26;;;;;;;1999.90;999.90;;;;;;;13.52;100.00;97618.31;5036704;28;20022;-75
2023/05/23 03:31:51;;;;;;;1999.90;999.90;;;;;;;13.60;100.00;97612.00;5036703;28;20045;-76
2023/05/23 03:34:16;;;;;;;1999.90;999.90;;;;;;;13.62;100.00;97621.56;5036703;28;20060;-75
2023/05/23 03:36:42;;;;;;;1999.90;999.90;;;;;;;13.74;100.00;97610.72;5036575;28;20124;-76
2023/05/23 03:39:07;;;;;;;1999.90;999.90;;;;;;;13.87;100.00;97615.25;5036337;28;20108;-76
2023/05/23 03:41:32;;;;;;;1999.90;999.90;;;;;;;13.90;100.00;97622.03;5036720;28;20025;-76
2023/05/23 03:43:59;;;;;;;1999.90;999.90;;;;;;;13.92;100.00;97620.56;5036469;28;20035;-75
2023/05/23 03:46:25;;;;;;;1999.90;999.90;;;;;;;14.00;100.00;97620.88;5036561;28;20037;-75
2023/05/23 03:48:50;;;;;;;1999.90;999.90;;;;;;;14.15;100.00;97625.88;5036473;28;20025;-75
2023/05/23 03:51:16;;;;;;;1999.90;999.90;;;;;;;14.24;100.00;97626.66;5034349;28;20082;-76
2023/05/23 03:53:41;;;;;;;1999.90;999.90;;;;;;;14.24;100.00;97621.16;5033148;28;20071;-76
2023/05/23 03:56:06;;;;;;;1999.90;999.90;;;;;;;14.22;100.00;97623.44;5033499;28;20504;-75
2023/05/23 03:58:32;;;;;;;1999.90;999.90;;;;;;;14.33;100.00;97624.72;5033745;28;20470;-76
2023/05/23 04:00:57;;;;;;;1999.90;999.90;;;;;;;14.51;100.00;97620.78;5033078;28;20406;-76
2023/05/23 04:03:22;;;;;;;1999.90;999.90;;;;;;;14.64;100.00;97635.47;5033111;28;20027;-76
2023/05/23 04:05:48;;;;;;;1999.90;999.90;;;;;;;14.70;100.00;97640.47;5032966;28;20081;-75
2023/05/23 04:08:14;;;;;;;1999.90;999.90;;;;;;;14.65;100.00;97632.41;5032983;28;20041;-76
2023/05/23 04:10:40;;;;;;;1999.90;999.90;;;;;;;14.54;100.00;97636.63;5033130;28;20480;-76
2023/05/23 04:13:05;;;;;;;1999.90;999.90;;;;;;;14.56;100.00;97639.06;5032809;28;20123;-76
2023/05/23 04:15:33;;;;;;;1999.90;999.90;;;;;;;14.56;100.00;97628.06;5032849;28;20082;-76
2023/05/23 04:17:59;;;;;;;1999.90;999.90;;;;;;;14.70;100.00;97629.47;5032925;28;20026;-76
2023/05/23 04:20:24;;;;;;;1999.90;999.90;;;;;;;14.86;100.00;97630.53;5028591;28;20486;-75
2023/05/23 04:22:50;;;;;;;1999.90;999.90;;;;;;;15.08;100.00;97636.91;5014704;28;20041;-75
2023/05/23 04:25:17;;;;;;;1999.90;999.90;;;;;;;15.24;100.00;97636.00;5016470;28;20041;-75
2023/05/23 04:27:42;;;;;;;1999.90;999.90;;;;;;;15.46;100.00;97632.94;5032645;28;20060;-75
2023/05/23 04:30:08;;;;;;;1999.90;999.90;;;;;;;15.67;100.00;97629.41;5032341;28;20501;-77
2023/05/23 04:32:34;;;;;;;1999.90;999.90;;;;;;;16.38;100.00;97621.78;5032322;28;20029;-76
2023/05/23 04:35:01;;;;;;;1999.90;999.90;;;;;;;16.41;100.00;97623.88;5032305;28;20034;-75
2023/05/23 04:37:26;;;;;;;1999.90;999.90;;;;;;;16.40;100.00;97636.88;5031887;28;20025;-75
2023/05/23 04:39:52;;;;;;;1999.90;999.90;;;;;;;16.52;100.00;97627.78;5032002;28;20022;-76
2023/05/23 04:42:23;;;;;;;1999.90;999.90;;;;;;;16.91;100.00;97635.50;5032225;28;20029;-76
2023/05/23 04:44:48;;;;;;;1999.90;999.90;;;;;;;17.63;100.00;97631.91;5032205;28;20108;-74
2023/05/23 04:47:14;;;;;;;1999.90;999.90;;;;;;;18.07;100.00;97632.78;5032051;28;20126;-75
2023/05/23 04:49:41;;;;;;;1999.90;999.90;;;;;;;17.69;100.00;97639.97;5032867;28;20517;-78
2023/05/23 04:52:06;;;;;;;1999.90;999.90;;;;;;;17.12;100.00;97630.66;5038005;28;20025;-80
2023/05/23 04:54:31;;;;;;;1999.90;999.90;;;;;;;17.10;100.00;97634.94;5035175;28;20042;-79
2023/05/23 04:56:57;;;;;;;1999.90;999.90;;;;;;;17.34;100.00;97631.34;5035247;28;20029;-78
2023/05/23 04:59:22;;;;;;;1999.90;999.90;;;;;;;17.95;100.00;97637.59;5035488;28;20048;-79
2023/05/23 05:01:48;;;;;;;1999.90;999.90;;;;;;;17.97;100.00;97638.84;5033310;28;20029;-81
2023/05/23 05:04:14;;;;;;;1999.90;999.90;;;;;;;17.56;100.00;97640.00;5031139;28;20033;-79
2023/05/23 05:06:40;;;;;;;1999.90;999.90;;;;;;;17.37;100.00;97636.97;5048617;28;20049;-81
2023/05/23 05:09:05;;;;;;;1999.90;999.90;;;;;;;17.59;100.00;97638.47;5052143;28;20036;-79
2023/05/23 05:11:30;;;;;;;1999.90;999.90;;;;;;;18.15;100.00;97642.94;5051575;28;20036;-78
2023/05/23 05:13:56;;;;;;;1999.90;999.90;;;;;;;18.08;100.00;97637.19;5048006;28;20384;-77
2023/05/23 05:16:21;;;;;;;1999.90;999.90;;;;;;;17.90;100.00;97638.63;5032017;28;20037;-77
2023/05/23 05:18:46;;;;;;;1999.90;999.90;;;;;;;18.16;100.00;97629.91;5033549;28;20033;-78
2023/05/23 05:21:12;;;;;;;1999.90;999.90;;;;;;;18.22;100.00;97631.25;5038253;28;20033;-77
2023/05/23 05:23:37;;;;;;;1999.90;999.90;;;;;;;18.15;100.00;97631.03;5032886;28;20029;-78
2023/05/23 05:26:04;;;;;;;1999.90;999.90;;;;;;;17.76;100.00;97632.66;5031503;28;20061;-77
2023/05/23 05:28:29;;;;;;;1999.90;999.90;;;;;;;17.80;100.00;97639.13;5031796;28;20033;-77
2023/05/23 05:30:54;;;;;;;1999.90;999.90;;;;;;;17.55;100.00;97637.56;5031463;28;20478;-79
2023/05/23 05:33:22;;;;;;;1999.90;999.90;;;;;;;17.49;100.00;97633.38;5031954;28;20390;-77
2023/05/23 05:35:50;;;;;;;1999.90;999.90;;;;;;;17.50;100.00;97630.28;5040114;28;20025;-79
2023/05/23 05:38:15;;;;;;;1999.90;999.90;;;;;;;17.46;100.00;97634.09;5036385;28;20033;-77
2023/05/23 05:40:41;;;;;;;1999.90;999.90;;;;;;;17.69;100.00;97632.47;5031376;28;20044;-77
2023/05/23 05:43:06;;;;;;;1999.90;999.90;;;;;;;17.71;100.00;97640.41;5030730;28;20036;-73
2023/05/23 05:45:31;;;;;;;1999.90;999.90;;;;;;;17.28;100.00;97638.25;5037684;28;20026;-74
2023/05/23 05:47:57;;;;;;;1999.90;999.90;;;;;;;17.78;100.00;97638.66;5039071;28;20026;-74
2023/05/23 05:50:23;;;;;;;1999.90;999.90;;;;;;;18.18;100.00;97642.22;5035200;28;20437;-75
2023/05/23 05:52:48;;;;;;;1999.90;999.90;;;;;;;18.84;100.00;97638.88;5039061;28;20029;-74
2023/05/23 05:55:14;;;;;;;1999.90;999.90;;;;;;;18.98;100.00;97650.31;5036832;28;20481;-74
2023/05/23 05:57:40;;;;;;;1999.90;999.90;;;;;;;18.87;100.00;97643.72;5047941;28;20386;-75
2023/05/23 06:00:17;;;;;;;1999.90;999.90;;;;;;;18.95;100.00;97628.88;5050713;28;20067;-76
2023/05/23 06:02:46;;;;;;;1999.90;999.90;;;;;;;19.17;100.00;97633.00;5035213;28;20044;-72
2023/05/23 06:05:12;;;;;;;1999.90;999.90;;;;;;;19.33;100.00;97638.53;5039350;28;20107;-72
2023/05/23 06:07:38;;;;;;;1999.90;999.90;;;;;;;19.24;100.00;97636.72;5029315;28;20014;-73
2023/05/23 06:10:04;;;;;;;1999.90;999.90;;;;;;;19.23;100.00;97637.09;5029299;28;20420;-72
2023/05/23 06:12:29;;;;;;;1999.90;999.90;;;;;;;19.18;100.00;97627.06;5029731;28;20041;-73
2023/05/23 06:14:55;;;;;;;1999.90;999.90;;;;;;;19.46;100.00;97632.53;5025286;28;20041;-72
2023/05/23 06:17:21;;;;;;;1999.90;999.90;;;;;;;19.78;100.00;97633.25;5027218;28;20029;-73
2023/05/23 06:19:46;;;;;;;1999.90;999.90;;;;;;;19.83;100.00;97634.94;5029896;28;20022;-73
2023/05/23 06:22:11;;;;;;;1999.90;999.90;;;;;;;19.62;100.00;97629.72;5025528;28;20033;-73
2023/05/23 06:24:37;;;;;;;1999.90;999.90;;;;;;;19.69;100.00;97635.44;5028991;28;20032;-73
2023/05/23 06:27:02;;;;;;;1999.90;999.90;;;;;;;19.54;100.00;97639.06;5029609;28;20052;-73
2023/05/23 06:29:29;;;;;;;1999.90;999.90;;;;;;;19.44;100.00;97631.28;5029903;28;20041;-73
2023/05/23 06:31:55;;;;;;;1999.90;999.90;;;;;;;19.55;100.00;97630.34;5029902;28;20040;-73
2023/05/23 06:34:20;;;;;;;1999.90;999.90;;;;;;;19.71;100.00;97639.44;5029441;28;20478;-72
2023/05/23 06:36:47;;;;;;;1999.90;999.90;;;;;;;19.75;100.00;97633.97;5029979;28;20037;-73
2023/05/23 06:39:12;;;;;;;1999.90;999.90;;;;;;;20.19;100.00;97629.75;5029186;28;20025;-71
2023/05/23 06:41:38;;;;;;;1999.90;999.90;;;;;;;20.32;100.00;97635.19;5028933;28;20045;-74
2023/05/23 06:44:03;;;;;;;1999.90;999.90;;;;;;;20.99;100.00;97636.47;5028695;28;20120;-73
2023/05/23 06:46:29;;;;;;;1999.90;999.90;;;;;;;21.97;100.00;97636.41;5010812;28;20029;-74
2023/05/23 06:48:54;;;;;;;1999.90;999.90;;;;;;;22.30;96.12;97634.47;5028187;28;20128;-73
2023/05/23 06:51:20;;;;;;;1999.90;999.90;;;;;;;22.16;90.06;97628.72;5029510;28;20474;-73
2023/05/23 06:53:45;;;;;;;1999.90;999.90;;;;;;;21.48;95.63;97630.91;5029994;28;20041;-73
2023/05/23 06:56:10;;;;;;;1999.90;999.90;;;;;;;21.18;96.96;97622.47;5030016;28;20022;-73
2023/05/23 06:58:35;;;;;;;1999.90;999.90;;;;;;;20.98;100.00;97624.53;5030273;28;20386;-73
2023/05/23 07:01:01;;;;;;;1999.90;999.90;;;;;;;20.82;99.00;97621.06;5029585;28;20479;-74
2023/05/23 07:03:26;;;;;;;1999.90;999.90;;;;;;;21.13;96.69;97623.63;5029764;28;20480;-81
2023/05/23 07:05:51;;;;;;;1999.90;999.90;;;;;;;21.21;94.53;97633.69;5030594;28;20069;-76
2023/05/23 07:08:17;;;;;;;1999.90;999.90;;;;;;;21.21;92.11;97622.53;5030286;28;20029;-76
2023/05/23 07:10:42;;;;;;;1999.90;999.90;;;;;;;21.31;92.23;97623.91;5029889;28;20029;-76
2023/05/23 07:13:08;;;;;;;1999.90;999.90;;;;;;;21.18;91.95;97626.06;5029930;28;20348;-75
2023/05/23 07:15:33;;;;;;;1999.90;999.90;;;;;;;21.39;90.64;97630.38;5019080;28;20474;-74
2023/05/23 07:17:58;;;;;;;1999.90;999.90;;;;;;;21.44;89.78;97630.06;5049839;28;20024;-73
2023/05/23 07:20:24;;;;;;;1999.90;999.90;;;;;;;21.58;88.25;97630.28;5050533;28;20393;-74
2023/05/23 07:22:50;;;;;;;1999.90;999.90;;;;;;;21.65;86.64;97619.22;5050809;28;20029;-73
2023/05/23 07:25:16;;;;;;;1999.90;999.90;;;;;;;21.61;86.82;97618.41;5051266;28;20154;-74
2023/05/23 07:27:41;;;;;;;1999.90;999.90;;;;;;;21.69;84.54;97615.34;5050955;28;20033;-76
2023/05/23 07:30:08;;;;;;;1999.90;999.90;;;;;;;22.00;83.33;97625.31;5034916;28;20037;-76
2023/05/23 07:32:34;;;;;;;1999.90;999.90;;;;;;;22.23;83.01;97620.47;5033355;28;20142;-76
2023/05/23 07:34:59;;;;;;;1999.90;999.90;;;;;;;22.26;81.01;97628.06;5031957;28;20014;-76
2023/05/23 07:37:26;;;;;;;1999.90;999.90;;;;;;;22.19;81.90;97616.81;5031714;28;20642;-75
2023/05/23 07:39:52;;;;;;;1999.90;999.90;;;;;;;22.60;81.11;97609.31;5031685;28;20036;-77
2023/05/23 07:42:17;;;;;;;1999.90;999.90;;;;;;;22.79;79.58;97617.53;5032060;28;20034;-79
2023/05/23 07:44:42;;;;;;;1999.90;999.90;;;;;;;22.87;79.74;97615.56;5031788;28;20033;-76
2023/05/23 07:47:07;;;;;;;1999.90;999.90;;;;;;;23.19;76.86;97616.66;5031772;28;20040;-76
2023/05/23 07:49:33;;;;;;;1999.90;999.90;;;;;;;22.93;77.23;97617.63;5033131;28;20036;-76
2023/05/23 07:51:58;;;;;;;1999.90;999.90;;;;;;;23.31;75.69;97610.78;5033271;28;20390;-74
2023/05/23 07:54:24;;;;;;;1999.90;999.90;;;;;;;23.68;73.28;97609.88;5033390;28;20390;-75
2023/05/23 07:56:49;;;;;;;1999.90;999.90;;;;;;;23.57;73.10;97601.44;5033964;28;20026;-75
2023/05/23 07:59:15;;;;;;;1999.90;999.90;;;;;;;23.46;73.62;97601.34;5033129;28;20034;-75
2023/05/23 08:01:41;;;;;;;1999.90;999.90;;;;;;;23.85;71.29;97598.00;5033238;28;20087;-75
2023/05/23 08:04:06;;;;;;;1999.90;999.90;;;;;;;24.18;68.77;97609.00;5033234;28;20036;-75
2023/05/23 08:06:32;;;;;;;1999.90;999.90;;;;;;;24.79;66.55;97605.16;5033192;28;20141;-74
2023/05/23 08:08:57;;;;;;;1999.90;999.90;;;;;;;25.59;62.85;97605.63;5032971;28;20047;-75
2023/05/23 08:11:23;;;;;;;1999.90;999.90;;;;;;;25.55;61.73;97605.63;5032745;28;20413;-75
2023/05/23 08:13:48;;;;;;;1999.90;999.90;;;;;;;26.61;58.79;97599.66;5033124;28;20029;-76
2023/05/23 08:16:13;;;;;;;1999.90;999.90;;;;;;;27.65;52.84;97609.75;5032834;28;20036;-75
2023/05/23 08:18:39;;;;;;;1999.90;999.90;;;;;;;28.49;50.75;97612.84;5032950;28;20025;-76
2023/05/23 08:21:04;;;;;;;1999.90;999.90;;;;;;;29.30;47.53;97604.44;5033041;28;20121;-76
2023/05/23 08:23:29;;;;;;;1999.90;999.90;;;;;;;29.75;46.32;97602.88;5032837;28;20409;-75
2023/05/23 08:25:56;;;;;;;1999.90;999.90;;;;;;;30.05;44.84;97601.91;5032991;28;20029;-75
2023/05/23 08:28:21;;;;;;;1999.90;999.90;;;;;;;30.67;42.51;97613.13;5032926;28;20068;-76
2023/05/23 08:30:47;;;;;;;1999.90;999.90;;;;;;;31.28;40.80;97606.91;5032513;28;20057;-76
2023/05/23 08:33:12;;;;;;;1999.90;999.90;;;;;;;32.93;37.60;97619.78;5032557;28;20033;-77
2023/05/23 08:35:37;;;;;;;1999.90;999.90;;;;;;;32.97;36.39;97611.97;5032611;28;20406;-75
2023/05/23 08:38:06;;;;;;;1999.90;999.90;;;;;;;32.85;36.87;97611.53;5031660;28;20275;-78
2023/05/23 08:40:33;;;;;;;1999.90;999.90;;;;;;;32.00;37.92;97601.03;5032315;28;20026;-77
2023/05/23 08:42:58;;;;;;;1999.90;999.90;;;;;;;32.75;37.03;97615.47;5032360;28;20037;-74
2023/05/23 08:45:23;;;;;;;1999.90;999.90;;;;;;;33.71;34.51;97616.06;5032312;28;20116;-75
2023/05/23 08:47:51;;;;;;;1999.90;999.90;;;;;;;33.78;33.86;97603.66;5032118;28;20025;-76
2023/05/23 08:50:17;;;;;;;1999.90;999.90;;;;;;;33.23;34.66;97602.25;5032019;28;20021;-75
2023/05/23 08:52:58;;;;;;;1999.90;999.90;;;;;;;32.06;36.18;97588.75;5032111;28;20037;-73
2023/05/23 08:55:27;;;;;;;1999.90;999.90;;;;;;;33.56;34.37;97602.78;5032350;28;20112;-73
2023/05/23 08:57:54;;;;;;;1999.90;999.90;;;;;;;33.81;33.67;97592.19;5032608;28;20022;-75
2023/05/23 09:00:21;;;;;;;1999.90;999.90;;;;;;;34.18;33.06;97592.50;5032085;28;20022;-73
2023/05/23 09:02:46;;;;;;;1999.90;999.90;;;;;;;34.76;31.99;97602.13;5032170;28;20371;-76
2023/05/23 09:05:13;;;;;;;1999.90;999.90;;;;;;;34.25;32.28;97592.25;5035599;28;20072;-75
2023/05/23 09:07:39;;;;;;;1999.90;999.90;;;;;;;33.41;32.62;97608.13;5034692;28;20029;-75
2023/05/23 09:10:07;;;;;;;1999.90;999.90;;;;;;;33.51;33.19;97600.53;5031946;28;20098;-75
2023/05/23 09:12:36;;;;;;;1999.90;999.90;;;;;;;33.51;33.31;97601.31;5031825;28;20025;-74
2023/05/23 09:15:03;;;;;;;1999.90;999.90;;;;;;;34.46;31.81;97588.63;5031795;28;20068;-74
2023/05/23 09:17:31;;;;;;;1999.90;999.90;;;;;;;33.42;32.53;97594.75;5031645;28;20025;-75
2023/05/23 09:19:56;;;;;;;1999.90;999.90;;;;;;;31.33;36.18;97575.25;5032173;28;20064;-74
2023/05/23 09:22:24;;;;;;;1999.90;999.90;;;;;;;32.66;34.05;97584.19;5030473;28;20466;-74
2023/05/23 09:24:52;;;;;;;1999.90;999.90;;;;;;;33.58;33.12;97572.69;5031501;28;20266;-76
2023/05/23 09:27:17;;;;;;;1999.90;999.90;;;;;;;33.78;32.07;97563.91;5031971;28;20041;-75
2023/05/23 09:29:43;;;;;;;1999.90;999.90;;;;;;;33.66;31.66;97568.38;5031879;28;20183;-75
2023/05/23 09:32:14;;;;;;;1999.90;999.90;;;;;;;33.17;32.46;97570.84;5031812;28;20493;-74
2023/05/23 09:34:58;;;;;;;1999.90;999.90;;;;;;;34.11;31.18;97570.88;5031984;28;20041;-74
2023/05/23 09:37:30;;;;;;;1999.90;999.90;;;;;;;34.88;29.22;97577.69;5040856;28;20157;-77
2023/05/23 09:39:57;;;;;;;1999.90;999.90;;;;;;;34.97;29.29;97563.50;5033755;28;20026;-73
2023/05/23 09:42:22;;;;;;;1999.90;999.90;;;;;;;35.14;29.45;97566.91;5031336;28;20029;-74
2023/05/23 09:44:49;;;;;;;1999.90;999.90;;;;;;;35.52;28.62;97564.50;5034179;28;20481;-74
2023/05/23 09:47:15;;;;;;;1999.90;999.90;;;;;;;34.26;30.54;97554.88;5041226;28;20021;-73
2023/05/23 09:49:42;;;;;;;1999.90;999.90;;;;;;;34.09;30.33;97550.59;5039768;28;20075;-74
2023/05/23 09:52:08;;;;;;;1999.90;999.90;;;;;;;35.53;28.02;97560.38;5030902;28;20029;-74
2023/05/23 09:54:33;;;;;;;1999.90;999.90;;;;;;;34.01;29.92;97554.19;5029650;28;20060;-73
2023/05/23 09:57:01;;;;;;;1999.90;999.90;;;;;;;32.73;31.90;97547.13;5031424;28;20045;-73
2023/05/23 09:59:40;;;;;;;1999.90;999.90;;;;;;;32.55;32.36;97538.31;5030668;28;20029;-73
2023/05/23 10:02:07;;;;;;;1999.90;999.90;;;;;;;34.33;29.65;97539.63;5008069;28;20041;-74
2023/05/23 10:04:33;;;;;;;1999.90;999.90;;;;;;;34.28;29.96;97537.34;5011014;28;20053;-74
2023/05/23 10:07:21;;;;;;;1999.90;999.90;;;;;;;34.75;29.38;97534.31;5010825;28;20092;-75
2023/05/23 10:10:02;;;;;;;1999.90;999.90;;;;;;;35.08;29.34;97531.78;4993608;28;20032;-75
2023/05/23 10:12:48;;;;;;;1999.90;999.90;;;;;;;34.88;29.56;97537.88;5011077;28;20036;-74
2023/05/23 10:15:15;;;;;;;1999.90;999.90;;;;;;;34.62;29.88;97531.59;5011183;28;20510;-74
2023/05/23 10:17:49;;;;;;;1999.90;999.90;;;;;;;34.23;30.58;97529.44;5010792;28;20033;-73
2023/05/23 10:20:16;;;;;;;1999.90;999.90;;;;;;;34.10;30.90;97521.00;5010828;28;20021;-74
2023/05/23 10:22:42;;;;;;;1999.90;999.90;;;;;;;34.20;31.09;97519.00;5010902;28;20030;-74
2023/05/23 10:25:09;;;;;;;1999.90;999.90;;;;;;;35.27;29.38;97524.91;5011191;28;20501;-74
2023/05/23 10:27:37;;;;;;;1999.90;999.90;;;;;;;34.40;30.27;97525.91;5011109;28;20492;-74
2023/05/23 10:30:03;;;;;;;1999.90;999.90;;;;;;;32.26;33.00;97507.25;5010769;28;20113;-74
2023/05/23 10:32:30;;;;;;;1999.90;999.90;;;;;;;30.44;36.76;97502.31;5010758;28;20129;-75
2023/05/23 10:35:13;;;;;;;1999.90;999.90;;;;;;;29.89;37.71;97500.25;5010826;28;20072;-74
2023/05/23 10:37:47;;;;;;;1999.90;999.90;;;;;;;29.56;38.18;97485.97;5010736;28;20032;-74
2023/05/23 10:40:20;;;;;;;1999.90;999.90;;;;;;;29.34;38.75;97493.25;5010756;28;20045;-75
2023/05/23 10:42:55;;;;;;;1999.90;999.90;;;;;;;28.85;39.65;97480.00;5010708;28;20045;-75
2023/05/23 10:45:21;;;;;;;1999.90;999.90;;;;;;;29.50;38.98;97479.25;5010716;28;20471;-76
2023/05/23 10:47:51;;;;;;;1999.90;999.90;;;;;;;29.38;39.66;97474.25;5010667;28;20026;-74
2023/05/23 10:50:33;;;;;;;1999.90;999.90;;;;;;;28.75;41.04;97466.88;5010373;28;20368;-75
2023/05/23 10:53:03;;;;;;;1999.90;999.90;;;;;;;28.52;41.02;97459.16;5010581;28;20092;-74
2023/05/23 10:55:32;;;;;;;1999.90;999.90;;;;;;;28.74;40.12;97456.84;5013937;28;20470;-74